メインページ
METAR-TAF:

METAR-TAF

空港 :

バマコ, マリ共和国

バマコ・セヌー国際空港

緯度: 12-32N, 経度: 007-57W, 海抜: 380m

現時点の気象観測

当レポートは24分前の07:30(UTC)に作成
北東の風 4kt
気温 20°C
湿度 37%
気圧 1013 hPa
視程: 8000m

METAR: GABS 200730Z 05004KT 8000 NSC 20/05 Q1013 NOSIG

時間: 07:54 (07:54 UTC)

予報

当レポートは2時間54分前の05:00(UTC)に作成
予報は20日の 06時(UTC)から 21日の 12時(UTC)まで有効
東/北東の風 10kt
視程: 8000m
確率 40% :
20日の 06時(UTC)から 20日の 10時(UTC)まで一時的に
視程: 4500m
煙霧
確率 40% :
20日の 17時(UTC)から 20日の 22時(UTC)まで一時的に
視程: 4500m
煙霧
確率 40% :
21日の 06時(UTC)から 21日の 10時(UTC)まで一時的に
視程: 4500m
煙霧

TAF: GABS 200500Z 2006/2112 06010KT 8000 NSC PROB40 TEMPO 2006/2010 4500 HZ PROB40 TEMPO 2017/2022 4500 HZ PROB40 TEMPO 2106/2110 4500 HZ

4,000以上の空港の気象観測と天気予報(METAR報とTAF報)

利用可能な観測所は地図上に黄色い丸と赤い丸で示す。

丸の上にカーソルを重ねると観測所名を参照できる。

次にクリックすると気象観測と天気予報を参照できる。

マップの切り替え:黒色「×」印の緑ボタンをクリックして拡大、「-」印の緑ボタンをクリックして縮小、緑色の三角印をクリックして隣りの地図に切り替え


METAR-TAF: